createdAt,value
2023-04-29T00:00:29.240Z,87.10
2023-04-29T00:02:58.479Z,87.40
2023-04-29T00:05:27.627Z,87.80
2023-04-29T00:07:57.065Z,88.00
2023-04-29T00:10:26.178Z,87.90
2023-04-29T00:12:55.108Z,87.80
2023-04-29T00:15:24.082Z,87.80
2023-04-29T00:17:56.725Z,87.50
2023-04-29T00:20:27.053Z,86.60
2023-04-29T00:22:56.236Z,86.50
2023-04-29T00:25:25.547Z,86.20
2023-04-29T00:27:54.709Z,86.00
2023-04-29T00:30:23.755Z,86.20
2023-04-29T00:32:54.399Z,86.40
2023-04-29T00:35:23.684Z,86.30
2023-04-29T00:37:52.608Z,86.30
2023-04-29T00:40:21.712Z,86.80
2023-04-29T00:42:50.888Z,87.00
2023-04-29T00:45:19.888Z,86.80
2023-04-29T00:47:48.941Z,86.70
2023-04-29T00:50:19.604Z,86.60
2023-04-29T00:52:49.564Z,86.70
2023-04-29T00:55:18.857Z,87.10
2023-04-29T00:57:50.298Z,87.10
2023-04-29T01:00:19.699Z,86.50
2023-04-29T01:02:49.700Z,86.50
2023-04-29T01:05:20.318Z,86.60
2023-04-29T01:08:08.536Z,86.60
2023-04-29T01:10:45.983Z,86.20
2023-04-29T01:13:24.294Z,86.40
2023-04-29T01:16:03.997Z,86.20
2023-04-29T01:18:38.380Z,85.80
2023-04-29T01:21:09.585Z,85.50
2023-04-29T01:23:40.035Z,85.70
2023-04-29T01:26:09.695Z,86.10
2023-04-29T01:29:12.805Z,86.40
2023-04-29T01:31:50.895Z,86.60
2023-04-29T01:34:30.019Z,86.80
2023-04-29T01:37:08.040Z,86.60
2023-04-29T01:39:54.568Z,86.60
2023-04-29T01:42:31.161Z,86.70
2023-04-29T01:45:05.551Z,87.00
2023-04-29T01:47:57.058Z,87.10
2023-04-29T01:50:27.073Z,87.00
2023-04-29T01:52:59.232Z,87.10
2023-04-29T01:55:29.877Z,87.30
2023-04-29T01:58:20.690Z,87.10
2023-04-29T02:01:02.489Z,86.90
2023-04-29T02:03:34.486Z,86.70
2023-04-29T02:06:07.263Z,86.70
2023-04-29T02:08:37.611Z,86.10
2023-04-29T02:11:08.193Z,85.80
2023-04-29T02:13:42.130Z,85.70
2023-04-29T02:16:14.416Z,85.90
2023-04-29T02:18:48.347Z,86.30
2023-04-29T02:21:17.385Z,86.60
2023-04-29T02:23:46.319Z,86.70
2023-04-29T02:26:17.373Z,86.90
2023-04-29T02:28:46.553Z,86.70
2023-04-29T02:31:15.533Z,86.80
2023-04-29T02:33:47.363Z,86.90
2023-04-29T02:36:16.481Z,87.50
2023-04-29T02:38:45.901Z,87.70
2023-04-29T02:41:20.080Z,88.10
2023-04-29T02:43:50.554Z,88.80
2023-04-29T02:46:20.129Z,89.20
2023-04-29T02:49:07.972Z,89.60
2023-04-29T02:51:37.058Z,90.20
2023-04-29T02:54:06.554Z,90.10
2023-04-29T02:56:36.920Z,90.20
2023-04-29T02:59:05.831Z,90.50
2023-04-29T03:01:34.948Z,90.60
2023-04-29T03:04:04.183Z,90.70
2023-04-29T03:06:33.409Z,90.70
2023-04-29T03:09:02.781Z,90.70
2023-04-29T03:11:32.228Z,90.70
2023-04-29T03:14:21.348Z,90.70
2023-04-29T03:16:51.278Z,90.70
2023-04-29T03:19:20.781Z,90.80
2023-04-29T03:21:53.835Z,90.90
2023-04-29T03:24:24.164Z,90.90
2023-04-29T03:26:53.204Z,90.90
2023-04-29T03:29:24.446Z,91.00
2023-04-29T03:31:53.652Z,91.50
2023-04-29T03:34:22.666Z,91.50
2023-04-29T03:37:02.890Z,91.50
2023-04-29T03:39:32.937Z,91.50
2023-04-29T03:42:02.966Z,91.50
2023-04-29T03:44:33.559Z,91.50
2023-04-29T03:47:02.514Z,91.60
2023-04-29T03:49:31.547Z,91.60
2023-04-29T03:52:00.663Z,91.70
2023-04-29T03:54:29.960Z,91.70
2023-04-29T03:56:59.418Z,91.30
2023-04-29T03:59:28.430Z,91.40
2023-04-29T04:01:58.929Z,91.40
2023-04-29T04:04:28.278Z,91.30
2023-04-29T04:06:57.350Z,91.20
2023-04-29T04:09:30.572Z,91.20
2023-04-29T04:11:59.624Z,91.20
2023-04-29T04:14:29.166Z,91.40
2023-04-29T04:16:59.962Z,91.50
2023-04-29T04:19:29.437Z,91.60
2023-04-29T04:21:58.501Z,91.70
2023-04-29T04:24:27.486Z,91.70
2023-04-29T04:26:56.572Z,91.70
2023-04-29T04:29:34.651Z,91.70
2023-04-29T04:32:13.212Z,91.70
2023-04-29T04:34:42.410Z,91.40
2023-04-29T04:37:12.116Z,91.40
2023-04-29T04:39:41.445Z,91.40
2023-04-29T04:42:13.945Z,91.50
2023-04-29T04:44:43.005Z,91.60
2023-04-29T04:47:18.000Z,91.60
2023-04-29T04:50:00.664Z,91.60
2023-04-29T04:52:29.591Z,91.50
2023-04-29T04:55:06.507Z,91.50
2023-04-29T04:57:38.129Z,91.40
2023-04-29T05:00:08.982Z,91.30
2023-04-29T05:02:39.877Z,91.30
2023-04-29T05:05:10.690Z,91.20
2023-04-29T05:07:42.863Z,91.10
2023-04-29T05:10:13.165Z,91.10
2023-04-29T05:12:50.449Z,91.10
2023-04-29T05:15:21.260Z,91.00
2023-04-29T05:17:54.724Z,90.90
2023-04-29T05:20:23.961Z,90.70
2023-04-29T05:22:53.039Z,90.60
2023-04-29T05:25:22.753Z,90.60
2023-04-29T05:27:52.174Z,90.70
2023-04-29T05:30:22.561Z,90.80
2023-04-29T05:32:51.514Z,90.80
2023-04-29T05:35:24.095Z,90.80
2023-04-29T05:37:53.345Z,90.90
2023-04-29T05:40:29.884Z,91.10
2023-04-29T05:43:14.999Z,91.20
2023-04-29T05:45:44.099Z,91.20
2023-04-29T05:48:13.031Z,91.20
2023-04-29T05:50:43.545Z,91.20
2023-04-29T05:53:12.884Z,91.30
2023-04-29T05:55:45.326Z,91.40
2023-04-29T05:58:15.343Z,91.40
2023-04-29T06:00:44.608Z,91.40
2023-04-29T06:03:20.302Z,91.40
2023-04-29T06:05:54.331Z,91.50
2023-04-29T06:08:42.180Z,91.50
2023-04-29T06:11:24.587Z,91.60
2023-04-29T06:13:56.720Z,91.50
2023-04-29T06:16:26.775Z,91.40
2023-04-29T06:18:57.269Z,91.40
2023-04-29T06:21:28.221Z,91.40
2023-04-29T06:23:57.297Z,91.40
2023-04-29T06:26:26.375Z,91.30
2023-04-29T06:29:03.432Z,91.20
2023-04-29T06:31:34.147Z,91.10
2023-04-29T06:34:05.766Z,91.00
2023-04-29T06:36:38.934Z,91.20
2023-04-29T06:39:31.857Z,91.40
2023-04-29T06:42:24.071Z,91.40
2023-04-29T06:45:12.178Z,91.00
2023-04-29T06:47:44.206Z,90.90
2023-04-29T06:50:26.483Z,90.60
2023-04-29T06:52:57.345Z,90.60
2023-04-29T06:55:26.629Z,90.40
2023-04-29T06:57:55.584Z,90.10
2023-04-29T07:00:24.550Z,90.00
2023-04-29T07:02:57.385Z,89.80
2023-04-29T07:05:26.656Z,89.20
2023-04-29T07:07:57.869Z,89.00
2023-04-29T07:10:27.960Z,88.60
2023-04-29T07:12:57.354Z,88.10
2023-04-29T07:15:26.387Z,87.90
2023-04-29T07:17:55.669Z,86.90
2023-04-29T07:20:27.578Z,87.70
2023-04-29T07:22:58.042Z,87.20
2023-04-29T07:25:29.575Z,87.00
2023-04-29T07:27:59.310Z,86.80
2023-04-29T07:30:28.522Z,86.70
2023-04-29T07:32:57.583Z,86.60
2023-04-29T07:35:26.669Z,86.40
2023-04-29T07:37:58.013Z,86.10
2023-04-29T07:40:27.761Z,85.70
2023-04-29T07:43:04.910Z,85.10
2023-04-29T07:45:52.376Z,84.40
2023-04-29T07:48:22.788Z,83.50
2023-04-29T07:50:52.158Z,82.60
2023-04-29T07:53:22.556Z,82.10
2023-04-29T07:55:52.807Z,82.00
2023-04-29T07:58:40.213Z,81.90
2023-04-29T08:01:10.540Z,81.60
2023-04-29T08:03:41.786Z,81.60
2023-04-29T08:06:13.297Z,81.30
2023-04-29T08:08:46.380Z,80.70
2023-04-29T08:11:19.035Z,81.40
2023-04-29T08:13:48.827Z,81.70
2023-04-29T08:16:19.248Z,82.00
2023-04-29T08:18:48.412Z,81.90
2023-04-29T08:21:17.526Z,81.90
2023-04-29T08:23:47.925Z,81.80
2023-04-29T08:26:17.195Z,81.80
2023-04-29T08:28:46.181Z,82.00
2023-04-29T08:31:20.436Z,82.10
2023-04-29T08:33:49.943Z,82.50
2023-04-29T08:36:19.135Z,83.20
2023-04-29T08:38:52.935Z,82.80
2023-04-29T08:41:22.164Z,83.00
2023-04-29T08:43:51.510Z,83.10
2023-04-29T08:46:21.092Z,83.20
2023-04-29T08:48:51.327Z,83.40
2023-04-29T08:51:20.471Z,83.20
2023-04-29T08:53:50.826Z,83.20
2023-04-29T08:56:20.855Z,83.30
2023-04-29T08:58:54.640Z,83.60
2023-04-29T09:01:25.575Z,83.80
2023-04-29T09:04:05.877Z,84.10
2023-04-29T09:06:35.283Z,84.50
2023-04-29T09:09:06.757Z,84.80
2023-04-29T09:11:37.224Z,85.20
2023-04-29T09:14:06.346Z,85.00
2023-04-29T09:16:35.662Z,84.30
2023-04-29T09:19:04.707Z,83.70
2023-04-29T09:21:33.699Z,83.30
2023-04-29T09:24:05.319Z,83.00
2023-04-29T09:26:44.150Z,83.30
2023-04-29T09:29:16.604Z,83.90
2023-04-29T09:31:46.467Z,84.20
2023-04-29T09:34:16.764Z,83.70
2023-04-29T09:36:47.153Z,83.90
2023-04-29T09:39:18.360Z,84.20
2023-04-29T09:42:02.971Z,84.00
2023-04-29T09:44:34.550Z,83.90
2023-04-29T09:47:05.189Z,83.50
2023-04-29T09:49:38.799Z,83.00
2023-04-29T09:52:09.943Z,82.00
2023-04-29T09:54:41.713Z,80.90
2023-04-29T09:57:12.122Z,80.40
2023-04-29T09:59:43.258Z,79.40
2023-04-29T10:02:18.065Z,79.00
2023-04-29T10:04:48.640Z,79.00
2023-04-29T10:07:19.295Z,78.90
2023-04-29T10:09:50.839Z,78.70
2023-04-29T10:12:21.307Z,78.10
2023-04-29T10:15:04.133Z,77.40
2023-04-29T10:17:45.107Z,76.60
2023-04-29T10:20:16.811Z,75.90
2023-04-29T10:22:48.396Z,76.20
2023-04-29T10:25:20.378Z,75.80
2023-04-29T10:27:52.206Z,75.10
2023-04-29T10:30:23.275Z,75.20
2023-04-29T10:32:53.151Z,74.90
2023-04-29T10:35:26.048Z,74.70
2023-04-29T10:38:00.320Z,74.30
2023-04-29T10:40:38.567Z,74.30
2023-04-29T10:43:07.667Z,74.50
2023-04-29T10:45:36.870Z,74.40
2023-04-29T10:48:16.807Z,74.30
2023-04-29T10:51:04.766Z,74.70
2023-04-29T10:53:34.032Z,75.10
2023-04-29T10:56:11.232Z,74.30
2023-04-29T10:58:45.479Z,74.00
2023-04-29T11:01:15.961Z,73.60
2023-04-29T11:04:02.070Z,73.50
2023-04-29T11:06:41.790Z,73.40
2023-04-29T11:09:16.509Z,72.90
2023-04-29T11:11:58.376Z,72.60
2023-04-29T11:14:29.068Z,71.90
2023-04-29T11:17:00.870Z,71.80
2023-04-29T11:19:34.734Z,72.00
2023-04-29T11:22:13.679Z,70.20
2023-04-29T11:24:57.332Z,69.30
2023-04-29T11:27:31.885Z,69.10
2023-04-29T11:30:02.046Z,69.60
2023-04-29T11:32:32.755Z,69.10
2023-04-29T11:35:13.142Z,68.90
2023-04-29T11:37:45.373Z,68.60
2023-04-29T11:40:16.070Z,69.60
2023-04-29T11:42:48.469Z,70.20
2023-04-29T11:45:20.425Z,70.80
2023-04-29T11:47:52.184Z,70.50
2023-04-29T11:50:23.738Z,70.00
2023-04-29T11:52:53.345Z,68.10
2023-04-29T11:55:22.816Z,66.30
2023-04-29T11:57:56.416Z,65.00
2023-04-29T12:00:26.940Z,64.90
2023-04-29T12:02:56.221Z,64.50
2023-04-29T12:05:27.614Z,63.00
2023-04-29T12:07:57.312Z,61.10
2023-04-29T12:10:26.343Z,60.70
2023-04-29T12:12:58.992Z,60.90
2023-04-29T12:15:29.558Z,61.70
2023-04-29T12:17:59.301Z,61.90
2023-04-29T12:20:30.280Z,61.50
2023-04-29T12:23:11.987Z,60.70
2023-04-29T12:25:41.715Z,60.40
2023-04-29T12:28:19.761Z,60.40
2023-04-29T12:30:55.011Z,60.10
2023-04-29T12:33:38.646Z,60.20
2023-04-29T12:36:25.589Z,59.80
2023-04-29T12:39:05.352Z,59.20
2023-04-29T12:41:41.214Z,59.20
2023-04-29T12:44:17.159Z,58.80
2023-04-29T12:46:47.627Z,58.70
2023-04-29T12:49:20.748Z,59.10
2023-04-29T12:51:57.996Z,59.20
2023-04-29T12:54:27.863Z,59.30
2023-04-29T12:56:57.390Z,58.80
2023-04-29T12:59:28.016Z,59.20
2023-04-29T13:01:57.109Z,58.50
2023-04-29T13:04:26.478Z,58.50
2023-04-29T13:07:00.908Z,58.60
2023-04-29T13:09:30.934Z,58.60
2023-04-29T13:12:00.536Z,58.60
2023-04-29T13:14:31.353Z,58.50
2023-04-29T13:17:01.122Z,58.60
2023-04-29T13:19:49.738Z,58.60
2023-04-29T13:22:20.529Z,58.20
2023-04-29T13:24:50.578Z,57.70
2023-04-29T13:27:20.509Z,57.80
2023-04-29T13:29:51.785Z,56.80
2023-04-29T13:32:24.886Z,55.90
2023-04-29T13:34:56.719Z,56.20
2023-04-29T13:37:26.091Z,56.10
2023-04-29T13:39:57.438Z,55.90
2023-04-29T13:42:27.347Z,55.80
2023-04-29T13:44:58.243Z,55.80
2023-04-29T13:47:30.314Z,56.50
2023-04-29T13:58:36.201Z,56.50
2023-04-29T14:01:05.379Z,56.00
2023-04-29T14:03:20.412Z,55.00
2023-04-29T14:05:49.729Z,55.60
2023-04-29T14:08:18.703Z,55.30
2023-04-29T14:10:48.144Z,54.70
2023-04-29T14:13:18.074Z,54.40
2023-04-29T14:15:54.687Z,54.80
2023-04-29T14:18:23.849Z,54.80
2023-04-29T14:20:53.903Z,54.80
2023-04-29T14:23:23.249Z,54.70
2023-04-29T14:25:54.646Z,54.50
2023-04-29T14:28:45.675Z,55.00
2023-04-29T14:31:18.424Z,54.10
2023-04-29T14:33:48.998Z,54.00
2023-04-29T14:36:18.863Z,53.50
2023-04-29T14:38:47.901Z,53.90
2023-04-29T14:41:17.659Z,53.50
2023-04-29T14:43:46.778Z,53.30
2023-04-29T14:46:17.494Z,53.60
2023-04-29T14:48:48.066Z,54.00
2023-04-29T14:51:17.504Z,54.30
2023-04-29T14:53:46.494Z,54.50
2023-04-29T14:56:17.694Z,54.80
2023-04-29T14:59:08.817Z,54.50
2023-04-29T15:01:40.044Z,54.20
2023-04-29T15:04:09.165Z,54.20
2023-04-29T15:06:38.421Z,54.40
2023-04-29T15:09:08.300Z,54.00
2023-04-29T15:11:37.252Z,53.70
2023-04-29T15:14:06.669Z,53.60
2023-04-29T15:16:36.791Z,53.30
2023-04-29T15:19:07.123Z,52.80
2023-04-29T15:21:36.810Z,53.00
2023-04-29T15:24:07.462Z,53.20
2023-04-29T15:26:36.727Z,53.40
2023-04-29T15:29:06.241Z,53.50
2023-04-29T15:31:35.310Z,53.40
2023-04-29T15:34:04.550Z,53.60
2023-04-29T15:36:35.313Z,54.00
2023-04-29T15:39:04.878Z,54.50
2023-04-29T15:41:35.318Z,54.90
2023-04-29T15:44:04.633Z,55.10
2023-04-29T15:46:33.990Z,55.40
2023-04-29T15:49:04.756Z,55.00
2023-04-29T15:51:35.441Z,54.20
2023-04-29T15:54:05.533Z,54.90
2023-04-29T15:56:34.949Z,54.30
2023-04-29T15:59:04.041Z,54.10
2023-04-29T16:01:35.747Z,54.40
2023-04-29T16:04:06.126Z,54.80
2023-04-29T16:06:37.394Z,55.40
2023-04-29T16:09:06.602Z,55.90
2023-04-29T16:11:35.638Z,56.50
2023-04-29T16:14:04.596Z,56.80
2023-04-29T16:16:33.832Z,57.50
2023-04-29T16:19:03.096Z,57.80
2023-04-29T16:21:33.087Z,58.30
2023-04-29T16:24:03.760Z,58.80
2023-04-29T16:26:33.398Z,59.20
2023-04-29T16:29:02.321Z,59.40
2023-04-29T16:31:31.655Z,60.00
2023-04-29T16:34:00.580Z,60.80
2023-04-29T16:36:30.013Z,61.30
2023-04-29T16:38:59.353Z,61.70
2023-04-29T16:41:29.921Z,62.00
2023-04-29T16:43:59.861Z,62.60
2023-04-29T16:46:30.057Z,63.10
2023-04-29T16:48:59.201Z,63.90
2023-04-29T16:51:30.631Z,64.30
2023-04-29T16:53:59.554Z,64.80
2023-04-29T16:56:49.565Z,65.00
2023-04-29T16:59:19.985Z,64.90
2023-04-29T17:01:49.373Z,65.30
2023-04-29T17:04:18.418Z,65.70
2023-04-29T17:06:48.734Z,65.90
2023-04-29T17:09:17.997Z,65.80
2023-04-29T17:11:50.639Z,66.10
2023-04-29T17:14:39.822Z,66.20
2023-04-29T17:17:09.416Z,66.10
2023-04-29T17:19:57.507Z,66.40
2023-04-29T17:22:26.648Z,66.50
2023-04-29T17:24:55.818Z,66.70
2023-04-29T17:27:26.207Z,67.10
2023-04-29T17:29:55.388Z,67.80
2023-04-29T17:32:28.805Z,68.90
2023-04-29T17:35:03.775Z,69.40
2023-04-29T17:37:33.897Z,69.80
2023-04-29T17:40:03.760Z,70.10
2023-04-29T17:42:34.235Z,70.50
2023-04-29T17:45:03.262Z,70.60
2023-04-29T17:47:32.351Z,70.70
2023-04-29T17:50:16.506Z,70.80
2023-04-29T17:52:55.286Z,70.80
2023-04-29T17:55:24.615Z,71.70
2023-04-29T17:57:57.415Z,70.90
2023-04-29T18:00:27.217Z,71.70
2023-04-29T18:02:59.363Z,71.80
2023-04-29T18:05:29.678Z,71.60
2023-04-29T18:07:59.061Z,71.20
2023-04-29T18:10:28.286Z,71.00
2023-04-29T18:12:58.840Z,71.40
2023-04-29T18:15:28.202Z,72.30
2023-04-29T18:17:57.633Z,72.90
2023-04-29T18:20:27.267Z,73.50
2023-04-29T18:22:56.700Z,73.70
2023-04-29T18:25:26.575Z,74.00
2023-04-29T18:28:03.625Z,73.80
2023-04-29T18:30:48.852Z,74.40
2023-04-29T18:33:18.441Z,74.80
2023-04-29T18:35:47.530Z,75.00
2023-04-29T18:38:17.572Z,74.70
2023-04-29T18:40:54.021Z,74.30
2023-04-29T18:43:28.425Z,74.60
2023-04-29T18:46:00.270Z,75.40
2023-04-29T18:48:29.972Z,75.70
2023-04-29T18:51:00.779Z,76.00
2023-04-29T18:53:30.519Z,76.00
2023-04-29T18:55:59.627Z,76.20
2023-04-29T18:58:28.657Z,76.40
2023-04-29T19:01:00.339Z,76.60
2023-04-29T19:03:29.676Z,77.30
2023-04-29T19:05:58.755Z,77.60
2023-04-29T19:08:27.744Z,77.60
2023-04-29T19:10:59.940Z,77.70
2023-04-29T19:13:29.806Z,78.00
2023-04-29T19:16:00.352Z,78.20
2023-04-29T19:18:29.669Z,78.40
2023-04-29T19:21:01.167Z,78.60
2023-04-29T19:23:31.128Z,78.80
2023-04-29T19:26:02.378Z,78.90
2023-04-29T19:28:32.678Z,79.10
2023-04-29T19:31:03.485Z,79.40
2023-04-29T19:33:33.764Z,79.80
2023-04-29T19:36:04.465Z,80.20
2023-04-29T19:38:33.696Z,80.40
2023-04-29T19:41:03.197Z,80.70
2023-04-29T19:43:32.407Z,80.90
2023-04-29T19:46:03.162Z,81.40
2023-04-29T19:48:33.832Z,81.70
2023-04-29T19:51:11.961Z,82.20
2023-04-29T19:53:44.570Z,82.60
2023-04-29T19:56:13.921Z,83.00
2023-04-29T19:58:43.295Z,83.50
2023-04-29T20:01:14.081Z,84.90
2023-04-29T20:03:44.345Z,84.30
2023-04-29T20:06:18.298Z,85.40
2023-04-29T20:09:06.265Z,85.70
2023-04-29T20:11:35.570Z,86.00
2023-04-29T20:14:05.824Z,86.50
2023-04-29T20:16:37.093Z,87.00
2023-04-29T20:19:06.831Z,87.40
2023-04-29T20:21:35.715Z,87.70
2023-04-29T20:24:04.925Z,87.70
2023-04-29T20:26:34.423Z,87.90
2023-04-29T20:29:03.947Z,88.00
2023-04-29T20:31:33.083Z,88.40
2023-04-29T20:34:03.717Z,88.80
2023-04-29T20:36:37.803Z,89.20
2023-04-29T20:39:09.862Z,89.50
2023-04-29T20:41:39.146Z,89.60
2023-04-29T20:44:08.202Z,89.70
2023-04-29T20:46:38.294Z,89.70
2023-04-29T20:49:08.808Z,89.80
2023-04-29T20:51:37.812Z,90.00
2023-04-29T20:54:06.961Z,90.00
2023-04-29T20:56:35.935Z,90.10
2023-04-29T20:59:05.215Z,90.20
2023-04-29T21:01:35.476Z,90.40
2023-04-29T21:04:07.630Z,90.50
2023-04-29T21:06:36.629Z,90.90
2023-04-29T21:09:05.595Z,90.60
2023-04-29T21:11:36.149Z,90.70
2023-04-29T21:14:06.075Z,90.70
2023-04-29T21:16:35.490Z,90.80
2023-04-29T21:19:04.636Z,90.70
2023-04-29T21:21:35.040Z,90.70
2023-04-29T21:24:04.085Z,90.80
2023-04-29T21:26:33.049Z,90.90
2023-04-29T21:29:02.249Z,91.10
2023-04-29T21:31:32.106Z,91.10
2023-04-29T21:34:01.724Z,91.30
2023-04-29T21:36:32.236Z,91.30
2023-04-29T21:39:02.715Z,91.30
2023-04-29T21:41:37.660Z,91.50
2023-04-29T21:44:08.800Z,91.50
2023-04-29T21:46:56.797Z,91.50
2023-04-29T21:49:26.588Z,91.50
2023-04-29T21:51:56.494Z,91.70
2023-04-29T21:54:27.187Z,91.80
2023-04-29T21:56:56.555Z,91.90
2023-04-29T21:59:25.763Z,91.90
2023-04-29T22:02:00.621Z,91.90
2023-04-29T22:04:30.520Z,91.90
2023-04-29T22:07:00.361Z,91.90
2023-04-29T22:09:31.207Z,92.00
2023-04-29T22:12:00.493Z,92.00
2023-04-29T22:14:29.507Z,92.00
2023-04-29T22:16:58.474Z,92.10
2023-04-29T22:19:30.317Z,92.10
2023-04-29T22:21:59.785Z,92.00
2023-04-29T22:24:30.366Z,92.10
2023-04-29T22:26:59.412Z,92.30
2023-04-29T22:29:28.385Z,92.30
2023-04-29T22:31:57.382Z,92.40
2023-04-29T22:34:26.432Z,92.50
2023-04-29T22:36:55.617Z,92.70
2023-04-29T22:39:24.650Z,92.70
2023-04-29T22:41:55.261Z,92.80
2023-04-29T22:44:24.484Z,92.80
2023-04-29T22:46:53.648Z,92.90
2023-04-29T22:49:22.905Z,92.90
2023-04-29T22:51:51.916Z,92.90
2023-04-29T22:54:24.876Z,92.90
2023-04-29T22:57:00.301Z,93.00
2023-04-29T22:59:29.503Z,93.00
2023-04-29T23:01:58.416Z,93.00
2023-04-29T23:04:29.854Z,93.00
2023-04-29T23:06:59.552Z,92.90
2023-04-29T23:09:28.644Z,92.80
2023-04-29T23:11:59.596Z,92.80
2023-04-29T23:14:28.665Z,92.80
2023-04-29T23:16:57.663Z,92.80
2023-04-29T23:19:26.563Z,92.70
2023-04-29T23:21:55.990Z,92.70
2023-04-29T23:24:24.997Z,92.70
2023-04-29T23:26:54.010Z,92.70
2023-04-29T23:29:24.355Z,92.70
2023-04-29T23:31:53.417Z,92.70
2023-04-29T23:34:22.427Z,92.70
2023-04-29T23:36:51.420Z,92.60
2023-04-29T23:39:20.484Z,92.60
2023-04-29T23:41:49.330Z,92.50
2023-04-29T23:44:18.314Z,92.50
2023-04-29T23:46:48.837Z,92.30
2023-04-29T23:49:18.303Z,92.20
2023-04-29T23:51:47.219Z,92.00
2023-04-29T23:54:16.541Z,92.10
2023-04-29T23:56:45.616Z,92.10
2023-04-29T23:59:14.474Z,92.00
